KLAW/LAW METAR and TAF weather

Enter ICAO airport designator
Station Type Date Time Source
KLAW METAR 2020/07/04 08:53 UTC NOAA

KLAW 040853Z AUTO 00000KT 9SM CLR 25/22 A2994 RMK AO2 SLP122 T02500217 58004 $


Station Type Date Time Source
KLAW Decoded METAR 2020/07/04 08:53 UTC NOAA

LAWTON - FORT SILL REGIONAL, OK, United States (KLAW) 34-34N 98-25W 337M
Jul 04, 2020 - 04:53 AM EDT / 2020.07.04 0853 UTC
Wind: Calm:0
Visibility: 9 mile(s):0
Sky conditions: clear
Temperature: 77.0 F (25.0 C)
Dew Point: 71.1 F (21.7 C)
Relative Humidity: 81%
Pressure (altimeter): 29.94 in. Hg (1013 hPa)
Pressure tendency: 0.01 inches (0.4 hPa) lower than three hours ago
ob: KLAW 040853Z AUTO 00000KT 9SM CLR 25/22 A2994 RMK AO2 SLP122 T02500217 58004
cycle: 9

Station Type Date Time Source
KLAW TAF 2020/07/04 06:22 UTC NOAA

TAF KLAW 040520Z 0406/0506 12005KT P6SM BKN250
FM041200 06007KT P6SM SCT250

Example: see airport list